Sea Dweller — P3YX9 — position and weather

sailwx.info

Track history (hours):
 
Tides and Currents Weather Stations Pressure Air Temp Water Temp Dewpoint Dewpoint Depression Visibility Wind Speed Wind Dir Waves Ship Positions

Sea Dweller

Last reported at 2015-Feb-10 07:34 UTC. Time now 2015-Mar-28 11:08 UTC.
Position N 35°54' W 005°19'.
Warning: this ship's position is 46 days out of date.

Length 87 m; draft 5.6 m.

Type: Tanker. MMSI: 209249000.

Date/timePositionNaut miles runAvg speedWind from/ knotsBaromVisibWave heightAir tempDewpointWater temp
2015-Feb-10 07:34N 35°54' W 005°19'0 0.0
2015-Feb-10 06:33N 35°54' W 005°19'0 0.0
2015-Feb-10 05:33N 35°54' W 005°19'0 0.0
2015-Feb-10 04:33N 35°54' W 005°19'0 0.4
2015-Feb-10 03:33N 35°54' W 005°19'1 0.6
2015-Feb-10 02:33N 35°54' W 005°19'1 1.4
2015-Feb-10 01:34N 35°55' W 005°20'1 1.4
2015-Feb-10 00:33N 35°56' W 005°22'0 0.4
2015-Feb-09 23:34N 35°55' W 005°22'0 0.1
2015-Feb-09 22:34N 35°55' W 005°22'2 1.5
2015-Feb-09 21:34N 35°57' W 005°23'2 2.0
2015-Feb-09 20:34N 35°59' W 005°22'5 4.5
2015-Feb-09 19:34N 36°01' W 005°18'4 3.6
2015-Feb-09 18:33N 36°00' W 005°13'2 2.0
2015-Feb-09 17:34N 35°59' W 005°15'4 4.4
2015-Feb-09 16:34N 35°55' W 005°18'2 1.9
2015-Feb-09 15:32N 35°54' W 005°19'0 0.0
2015-Feb-09 14:32N 35°54' W 005°19'0 0.0
2015-Feb-09 13:32N 35°54' W 005°19'0 0.0
2015-Feb-09 12:32N 35°54' W 005°19'0 0.0
2015-Feb-09 11:32N 35°54' W 005°19'0 0.0
2015-Feb-09 10:32N 35°54' W 005°19'0 0.0
2015-Feb-09 09:32N 35°54' W 005°19'0 0.0
2015-Feb-09 08:33N 35°54' W 005°19'1 1.3
2015-Feb-09 07:33N 35°55' W 005°20'0 0.5
2015-Feb-09 06:33N 35°55' W 005°20'0 0.0
2015-Feb-09 05:33N 35°55' W 005°20'0 0.0
2015-Feb-09 04:33N 35°55' W 005°20'0 0.0
2015-Feb-09 03:33N 35°55' W 005°20'0 0.0
2015-Feb-09 02:33N 35°55' W 005°20'0 0.0
2015-Feb-09 01:33N 35°55' W 005°20'0 0.0
2015-Feb-09 00:33N 35°55' W 005°20'0 0.0
2015-Feb-08 23:33N 35°55' W 005°20'0 0.0
2015-Feb-08 22:33N 35°55' W 005°20'0 0.0
2015-Feb-08 21:33N 35°55' W 005°20'0 0.0
2015-Feb-08 20:33N 35°55' W 005°20'0 0.0
2015-Feb-08 19:30N 35°55' W 005°20'0 0.0
2015-Feb-08 18:33N 35°55' W 005°20'0 0.0
2015-Feb-08 17:33N 35°55' W 005°20'0 0.0
2015-Feb-08 16:33N 35°55' W 005°20'0 0.1
2015-Feb-08 15:33N 35°55' W 005°20'0 0.0
2015-Feb-08 14:33N 35°55' W 005°20'0 0.0
2015-Feb-08 13:33N 35°55' W 005°20'0 0.4
2015-Feb-08 12:33N 35°54' W 005°20'0 0.0
2015-Feb-08 11:33N 35°54' W 005°20'0 0.0
2015-Feb-08 10:33N 35°55' W 005°20'0 0.0
2015-Feb-08 09:33N 35°55' W 005°20'0 0.0
2015-Feb-08 08:33N 35°55' W 005°20'0 0.0
2015-Feb-08 07:33N 35°55' W 005°20'0 0.0
2015-Feb-08 06:33N 35°55' W 005°20'0 0.0
2015-Feb-08 05:33N 35°54' W 005°20'0 0.1
2015-Feb-08 04:33N 35°54' W 005°20'0 0.1
2015-Feb-08 03:33N 35°54' W 005°20'0 0.0
2015-Feb-08 02:33N 35°54' W 005°20'0 0.0
2015-Feb-08 01:33N 35°55' W 005°20'0 0.0
2015-Feb-08 00:33N 35°54' W 005°20'0 0.0
2015-Feb-07 23:33N 35°55' W 005°20'0 0.0
2015-Feb-07 22:33N 35°55' W 005°20'0 0.0
2015-Feb-07 21:33N 35°55' W 005°20'0 0.1
2015-Feb-07 20:33N 35°55' W 005°20'0 0.0
2015-Feb-07 19:33N 35°55' W 005°20'0 0.0
2015-Feb-07 18:33N 35°55' W 005°20'0 0.0
2015-Feb-07 17:33N 35°55' W 005°20'0 0.0
2015-Feb-07 16:33N 35°55' W 005°20'0 0.0
2015-Feb-07 15:33N 35°55' W 005°20'0 0.0
2015-Feb-07 14:33N 35°55' W 005°20'0 0.1
2015-Feb-07 13:33N 35°55' W 005°20'0 0.0
2015-Feb-07 12:33N 35°55' W 005°20'0 0.0
2015-Feb-07 11:33N 35°55' W 005°20'0 0.0
2015-Feb-07 10:33N 35°55' W 005°20'0 0.0
2015-Feb-07 09:33N 35°55' W 005°20'0 0.0
2015-Feb-07 08:33N 35°55' W 005°20'0 0.0
2015-Feb-07 07:33N 35°55' W 005°20'0 0.0
2015-Feb-07 06:33N 35°55' W 005°20'0 0.0
2015-Feb-07 05:33N 35°55' W 005°20'0 0.0
2015-Feb-07 04:33N 35°55' W 005°20'0 0.0
2015-Feb-07 03:33N 35°55' W 005°20'0 0.1
2015-Feb-07 02:33N 35°54' W 005°20'0 0.0
2015-Feb-07 01:33N 35°54' W 005°20'0 0.1
2015-Feb-07 00:33N 35°55' W 005°20'0 0.0
2015-Feb-06 23:33N 35°55' W 005°20'0 0.0
2015-Feb-06 22:33N 35°54' W 005°20'0 0.0
2015-Feb-06 21:33N 35°55' W 005°20'0 0.0
2015-Feb-06 20:33N 35°55' W 005°20'0 0.1
2015-Feb-06 19:33N 35°55' W 005°20'0 0.0
2015-Feb-06 18:33N 35°54' W 005°20'0 0.0
2015-Feb-06 17:30N 35°54' W 005°20'0 0.0
2015-Feb-06 16:33N 35°54' W 005°20'0 0.0
2015-Feb-06 15:33N 35°54' W 005°20'0 0.0
2015-Feb-06 14:33N 35°54' W 005°20'0 0.0
2015-Feb-06 13:33N 35°54' W 005°20'0 0.0
2015-Feb-06 12:33N 35°54' W 005°20'0 0.1
2015-Feb-06 11:33N 35°55' W 005°20'0 0.1
2015-Feb-06 10:33N 35°54' W 005°20'0 0.1
2015-Feb-06 09:33N 35°55' W 005°20'0 0.0
2015-Feb-06 08:33N 35°55' W 005°20'0 0.0
2015-Feb-06 07:33N 35°55' W 005°20'0 0.1
2015-Feb-06 06:33N 35°55' W 005°20'0 0.0
2015-Feb-06 05:30N 35°54' W 005°20'0 0.0
2015-Feb-06 04:33N 35°54' W 005°20'0 0.0
2015-Feb-06 03:33N 35°55' W 005°20'0 0.0
2015-Feb-06 02:33N 35°55' W 005°20'0 0.1
2015-Feb-06 01:33N 35°55' W 005°20'0 0.0
2015-Feb-06 00:33N 35°54' W 005°20'0 0.0
2015-Feb-05 23:33N 35°54' W 005°20'0 0.0
2015-Feb-05 22:33N 35°54' W 005°20'0 0.1
2015-Feb-05 21:33N 35°55' W 005°20'0 0.0
2015-Feb-05 20:33N 35°55' W 005°20'0 0.1
2015-Feb-05 19:33N 35°55' W 005°20'0 0.1
2015-Feb-05 18:33N 35°55' W 005°20'0 0.1
2015-Feb-05 17:33N 35°55' W 005°20'1 0.8
2015-Feb-05 16:33N 35°55' W 005°21'0 0.0
2015-Feb-05 15:24N 35°55' W 005°21'0 0.0
2015-Feb-05 14:30N 35°55' W 005°21'1 0.8
2015-Feb-05 13:33N 35°55' W 005°20'1 0.5
2015-Feb-05 12:28N 35°55' W 005°20'0 0.1
2015-Feb-05 11:31N 35°55' W 005°20'0 0.0
2015-Feb-05 10:28N 35°55' W 005°20'0 0.1
2015-Feb-05 09:31N 35°55' W 005°20'0 0.0
2015-Feb-05 08:33N 35°55' W 005°20'1 1.0
2015-Feb-05 07:32N 35°54' W 005°20'0 0.0
2015-Feb-05 06:32N 35°54' W 005°20'0 0.0
2015-Feb-05 05:32N 35°54' W 005°20'0 0.0
2015-Feb-05 04:32N 35°54' W 005°20'0 0.4
2015-Feb-05 03:34N 35°54' W 005°20'0 0.3
2015-Feb-05 02:33N 35°55' W 005°20'0 0.0
2015-Feb-05 01:33N 35°55' W 005°20'0 0.0
2015-Feb-05 00:33N 35°55' W 005°20'0 0.0
2015-Feb-04 23:33N 35°55' W 005°20'0 0.0
2015-Feb-04 22:33N 35°55' W 005°20'0 0.3
2015-Feb-04 21:33N 35°54' W 005°20'0 0.0
2015-Feb-04 20:33N 35°54' W 005°20'0 0.0
2015-Feb-04 19:33N 35°54' W 005°20'0 0.0
2015-Feb-04 18:33N 35°54' W 005°20'0 0.0
2015-Feb-04 17:33N 35°54' W 005°20'0 0.0
2015-Feb-04 16:33N 35°54' W 005°20'0 0.0
2015-Feb-04 15:33N 35°54' W 005°20'0 0.0
2015-Feb-04 14:33N 35°54' W 005°20'0 0.0
2015-Feb-04 13:33N 35°54' W 005°20'0 0.0
2015-Feb-04 12:33N 35°54' W 005°20'0 0.0
2015-Feb-04 11:33N 35°54' W 005°20'0 0.0
2015-Feb-04 10:33N 35°54' W 005°20'0 0.0
2015-Feb-04 09:33N 35°54' W 005°20'0 0.0
2015-Feb-04 08:33N 35°54' W 005°20'0 0.0
2015-Feb-04 07:33N 35°54' W 005°20'0 0.0
2015-Feb-04 06:33N 35°54' W 005°20'0 0.0
2015-Feb-04 05:33N 35°54' W 005°20'0 0.0
2015-Feb-04 04:33N 35°54' W 005°20'0 0.0
2015-Feb-04 03:33N 35°54' W 005°20'0 0.0
2015-Feb-04 02:33N 35°54' W 005°20'0 0.0
2015-Feb-04 01:33N 35°54' W 005°20'0 0.1
2015-Feb-04 00:33N 35°54' W 005°20'0 0.0
2015-Feb-03 23:33N 35°54' W 005°20'0 0.0
2015-Feb-03 22:30N 35°54' W 005°20'0 0.0
2015-Feb-03 21:33N 35°54' W 005°20'0 0.0
2015-Feb-03 20:33N 35°54' W 005°20'0 0.0
2015-Feb-03 19:33N 35°54' W 005°20'0 0.0
2015-Feb-03 18:30N 35°54' W 005°20'0 0.0
2015-Feb-03 17:33N 35°54' W 005°20'0 0.0
2015-Feb-03 16:33N 35°54' W 005°20'0 0.0
2015-Feb-03 15:33N 35°54' W 005°20'0 0.0
2015-Feb-03 14:33N 35°54' W 005°20'0 0.0
2015-Feb-03 13:30N 35°54' W 005°20'0 0.0
2015-Feb-03 12:33N 35°54' W 005°20'0 0.0
2015-Feb-03 11:33N 35°54' W 005°20'0 0.0
2015-Feb-03 10:33N 35°54' W 005°20'0 0.0
2015-Feb-03 09:33N 35°54' W 005°20'0 0.0
2015-Feb-03 08:33N 35°54' W 005°20'0 0.0
2015-Feb-03 07:33N 35°54' W 005°20'0 0.0
2015-Feb-03 06:33N 35°54' W 005°20'0 0.0
2015-Feb-03 05:33N 35°54' W 005°20'0 0.0
2015-Feb-03 04:33N 35°54' W 005°20'0 0.0
2015-Feb-03 03:33N 35°54' W 005°20'0 0.0
2015-Feb-03 02:33N 35°54' W 005°20'0 0.0
2015-Feb-03 01:33N 35°54' W 005°20'0 0.1
2015-Feb-03 00:33N 35°54' W 005°20'0 0.0
2015-Feb-02 23:33N 35°54' W 005°20'0 0.0
2015-Feb-02 22:33N 35°54' W 005°20'0 0.0
2015-Feb-02 21:33N 35°54' W 005°20'0 0.0
2015-Feb-02 20:33N 35°54' W 005°20'0 0.0
2015-Feb-02 19:33N 35°54' W 005°20'0 0.1
2015-Feb-02 18:30N 35°54' W 005°20'0 0.0
2015-Feb-02 17:30N 35°54' W 005°20'0 0.1
2015-Feb-02 16:33N 35°54' W 005°20'2 1.7
2015-Feb-02 15:32N 35°54' W 005°18'0 0.0
2015-Feb-02 14:32N 35°54' W 005°18'0 0.0
2015-Feb-02 13:32N 35°54' W 005°18'0 0.0
2015-Feb-02 12:32N 35°54' W 005°18'0 0.0
2015-Feb-02 11:32N 35°54' W 005°18'0 0.0
2015-Feb-02 10:32N 35°54' W 005°18'0 0.0
2015-Feb-02 09:29N 35°54' W 005°18'0 0.0
2015-Feb-02 08:32N 35°54' W 005°18'0 0.0
2015-Feb-02 07:32N 35°54' W 005°18'0 0.0
2015-Feb-02 06:32N 35°54' W 005°18'0 0.0
2015-Feb-02 05:32N 35°54' W 005°18'0 0.0
2015-Feb-02 04:32N 35°54' W 005°18'0 0.0
2015-Feb-02 03:32N 35°54' W 005°18'0 0.0
2015-Feb-02 02:32N 35°54' W 005°18'0 0.0
2015-Feb-02 01:32N 35°54' W 005°18'0 0.0
2015-Feb-02 00:32N 35°54' W 005°18'0 0.0
2015-Feb-01 23:32N 35°54' W 005°18'0 0.0
2015-Feb-01 22:32N 35°54' W 005°18'0 0.0
2015-Feb-01 21:32N 35°54' W 005°18'0 0.0
2015-Feb-01 20:32N 35°54' W 005°18'0 0.0
2015-Feb-01 19:32N 35°54' W 005°18'0 0.0
2015-Feb-01 18:32N 35°54' W 005°18'1 1.0
2015-Feb-01 17:31N 35°55' W 005°19'0 0.4
2015-Feb-01 16:31N 35°55' W 005°19'0 0.0
2015-Feb-01 15:31N 35°55' W 005°19'0 0.0
2015-Feb-01 14:31N 35°55' W 005°19'0 0.0
2015-Feb-01 13:31N 35°55' W 005°19'0 0.1
2015-Feb-01 12:31N 35°55' W 005°19'1 0.7
2015-Feb-01 11:33N 35°55' W 005°20'0 0.0
2015-Feb-01 10:33N 35°55' W 005°20'0 0.0
2015-Feb-01 09:33N 35°55' W 005°20'0 0.0
2015-Feb-01 08:33N 35°55' W 005°20'1 0.5
2015-Feb-01 07:32N 35°55' W 005°20'0 0.0
2015-Feb-01 06:32N 35°55' W 005°20'0 0.0
2015-Feb-01 05:29N 35°55' W 005°20'0 0.0
2015-Feb-01 04:29N 35°55' W 005°20'0 0.0
2015-Feb-01 03:32N 35°55' W 005°20'0 0.0
2015-Feb-01 02:32N 35°55' W 005°20'0 0.0
2015-Feb-01 01:32N 35°55' W 005°20'0 0.0
2015-Feb-01 00:32N 35°55' W 005°20'0 0.0
2015-Jan-31 23:32N 35°55' W 005°20'0 0.0
2015-Jan-31 22:32N 35°55' W 005°20'0 0.0
2015-Jan-31 21:32N 35°55' W 005°20'0 0.0
2015-Jan-31 20:32N 35°55' W 005°20'0 0.0
2015-Jan-31 19:32N 35°55' W 005°20'0 0.0
2015-Jan-31 18:32N 35°55' W 005°20'0 0.0
2015-Jan-31 17:32N 35°55' W 005°20'0 0.0
2015-Jan-31 16:32N 35°55' W 005°20'0 0.0
2015-Jan-31 15:32N 35°55' W 005°20'0 0.0
2015-Jan-31 14:32N 35°55' W 005°20'0 0.0
2015-Jan-31 13:32N 35°55' W 005°20'0 0.0
2015-Jan-31 12:32N 35°55' W 005°20'0 0.0
2015-Jan-31 11:32N 35°55' W 005°20'0 0.0
2015-Jan-31 10:32N 35°55' W 005°20'0 0.0
2015-Jan-31 09:32N 35°55' W 005°20'0 0.0
2015-Jan-31 08:32N 35°55' W 005°20'  
Track history (hours):
 
Tides and Currents Weather Stations Pressure Air Temp Water Temp Dewpoint Dewpoint Depression Visibility Wind Speed Wind Dir Waves Ship Positions

Sea Dweller

Last reported at 2015-Feb-10 07:34 UTC. Time now 2015-Mar-28 11:08 UTC.
Position N 35°54' W 005°19'.
Warning: this ship's position is 46 days out of date.

Length 87 m; draft 5.6 m.

Type: Tanker. MMSI: 209249000.

Date/timePositionNaut miles runAvg speedWind from/ knotsBaromVisibWave heightAir tempDewpointWater temp
2015-Feb-10 07:34N 35°54' W 005°19'0 0.0
2015-Feb-10 06:33N 35°54' W 005°19'0 0.0
2015-Feb-10 05:33N 35°54' W 005°19'0 0.0
2015-Feb-10 04:33N 35°54' W 005°19'0 0.4
2015-Feb-10 03:33N 35°54' W 005°19'1 0.6
2015-Feb-10 02:33N 35°54' W 005°19'1 1.4
2015-Feb-10 01:34N 35°55' W 005°20'1 1.4
2015-Feb-10 00:33N 35°56' W 005°22'0 0.4
2015-Feb-09 23:34N 35°55' W 005°22'0 0.1
2015-Feb-09 22:34N 35°55' W 005°22'2 1.5
2015-Feb-09 21:34N 35°57' W 005°23'2 2.0
2015-Feb-09 20:34N 35°59' W 005°22'5 4.5
2015-Feb-09 19:34N 36°01' W 005°18'4 3.6
2015-Feb-09 18:33N 36°00' W 005°13'2 2.0
2015-Feb-09 17:34N 35°59' W 005°15'4 4.4
2015-Feb-09 16:34N 35°55' W 005°18'2 1.9
2015-Feb-09 15:32N 35°54' W 005°19'0 0.0
2015-Feb-09 14:32N 35°54' W 005°19'0 0.0
2015-Feb-09 13:32N 35°54' W 005°19'0 0.0
2015-Feb-09 12:32N 35°54' W 005°19'0 0.0
2015-Feb-09 11:32N 35°54' W 005°19'0 0.0
2015-Feb-09 10:32N 35°54' W 005°19'0 0.0
2015-Feb-09 09:32N 35°54' W 005°19'0 0.0
2015-Feb-09 08:33N 35°54' W 005°19'1 1.3
2015-Feb-09 07:33N 35°55' W 005°20'0 0.5
2015-Feb-09 06:33N 35°55' W 005°20'0 0.0
2015-Feb-09 05:33N 35°55' W 005°20'0 0.0
2015-Feb-09 04:33N 35°55' W 005°20'0 0.0
2015-Feb-09 03:33N 35°55' W 005°20'0 0.0
2015-Feb-09 02:33N 35°55' W 005°20'0 0.0
2015-Feb-09 01:33N 35°55' W 005°20'0 0.0
2015-Feb-09 00:33N 35°55' W 005°20'0 0.0
2015-Feb-08 23:33N 35°55' W 005°20'0 0.0
2015-Feb-08 22:33N 35°55' W 005°20'0 0.0
2015-Feb-08 21:33N 35°55' W 005°20'0 0.0
2015-Feb-08 20:33N 35°55' W 005°20'0 0.0
2015-Feb-08 19:30N 35°55' W 005°20'0 0.0
2015-Feb-08 18:33N 35°55' W 005°20'0 0.0
2015-Feb-08 17:33N 35°55' W 005°20'0 0.0
2015-Feb-08 16:33N 35°55' W 005°20'0 0.1
2015-Feb-08 15:33N 35°55' W 005°20'0 0.0
2015-Feb-08 14:33N 35°55' W 005°20'0 0.0
2015-Feb-08 13:33N 35°55' W 005°20'0 0.4
2015-Feb-08 12:33N 35°54' W 005°20'0 0.0
2015-Feb-08 11:33N 35°54' W 005°20'0 0.0
2015-Feb-08 10:33N 35°55' W 005°20'0 0.0
2015-Feb-08 09:33N 35°55' W 005°20'0 0.0
2015-Feb-08 08:33N 35°55' W 005°20'0 0.0
2015-Feb-08 07:33N 35°55' W 005°20'0 0.0
2015-Feb-08 06:33N 35°55' W 005°20'0 0.0
2015-Feb-08 05:33N 35°54' W 005°20'0 0.1
2015-Feb-08 04:33N 35°54' W 005°20'0 0.1
2015-Feb-08 03:33N 35°54' W 005°20'0 0.0
2015-Feb-08 02:33N 35°54' W 005°20'0 0.0
2015-Feb-08 01:33N 35°55' W 005°20'0 0.0
2015-Feb-08 00:33N 35°54' W 005°20'0 0.0
2015-Feb-07 23:33N 35°55' W 005°20'0 0.0
2015-Feb-07 22:33N 35°55' W 005°20'0 0.0
2015-Feb-07 21:33N 35°55' W 005°20'0 0.1
2015-Feb-07 20:33N 35°55' W 005°20'0 0.0
2015-Feb-07 19:33N 35°55' W 005°20'0 0.0
2015-Feb-07 18:33N 35°55' W 005°20'0 0.0
2015-Feb-07 17:33N 35°55' W 005°20'0 0.0
2015-Feb-07 16:33N 35°55' W 005°20'0 0.0
2015-Feb-07 15:33N 35°55' W 005°20'0 0.0
2015-Feb-07 14:33N 35°55' W 005°20'0 0.1
2015-Feb-07 13:33N 35°55' W 005°20'0 0.0
2015-Feb-07 12:33N 35°55' W 005°20'0 0.0
2015-Feb-07 11:33N 35°55' W 005°20'0 0.0
2015-Feb-07 10:33N 35°55' W 005°20'0 0.0
2015-Feb-07 09:33N 35°55' W 005°20'0 0.0
2015-Feb-07 08:33N 35°55' W 005°20'0 0.0
2015-Feb-07 07:33N 35°55' W 005°20'0 0.0
2015-Feb-07 06:33N 35°55' W 005°20'0 0.0
2015-Feb-07 05:33N 35°55' W 005°20'0 0.0
2015-Feb-07 04:33N 35°55' W 005°20'0 0.0
2015-Feb-07 03:33N 35°55' W 005°20'0 0.1
2015-Feb-07 02:33N 35°54' W 005°20'0 0.0
2015-Feb-07 01:33N 35°54' W 005°20'0 0.1
2015-Feb-07 00:33N 35°55' W 005°20'0 0.0
2015-Feb-06 23:33N 35°55' W 005°20'0 0.0
2015-Feb-06 22:33N 35°54' W 005°20'0 0.0
2015-Feb-06 21:33N 35°55' W 005°20'0 0.0
2015-Feb-06 20:33N 35°55' W 005°20'0 0.1
2015-Feb-06 19:33N 35°55' W 005°20'0 0.0
2015-Feb-06 18:33N 35°54' W 005°20'0 0.0
2015-Feb-06 17:30N 35°54' W 005°20'0 0.0
2015-Feb-06 16:33N 35°54' W 005°20'0 0.0
2015-Feb-06 15:33N 35°54' W 005°20'0 0.0
2015-Feb-06 14:33N 35°54' W 005°20'0 0.0
2015-Feb-06 13:33N 35°54' W 005°20'0 0.0
2015-Feb-06 12:33N 35°54' W 005°20'0 0.1
2015-Feb-06 11:33N 35°55' W 005°20'0 0.1
2015-Feb-06 10:33N 35°54' W 005°20'0 0.1
2015-Feb-06 09:33N 35°55' W 005°20'0 0.0
2015-Feb-06 08:33N 35°55' W 005°20'0 0.0
2015-Feb-06 07:33N 35°55' W 005°20'0 0.1
2015-Feb-06 06:33N 35°55' W 005°20'0 0.0
2015-Feb-06 05:30N 35°54' W 005°20'0 0.0
2015-Feb-06 04:33N 35°54' W 005°20'0 0.0
2015-Feb-06 03:33N 35°55' W 005°20'0 0.0
2015-Feb-06 02:33N 35°55' W 005°20'0 0.1
2015-Feb-06 01:33N 35°55' W 005°20'0 0.0
2015-Feb-06 00:33N 35°54' W 005°20'0 0.0
2015-Feb-05 23:33N 35°54' W 005°20'0 0.0
2015-Feb-05 22:33N 35°54' W 005°20'0 0.1
2015-Feb-05 21:33N 35°55' W 005°20'0 0.0
2015-Feb-05 20:33N 35°55' W 005°20'0 0.1
2015-Feb-05 19:33N 35°55' W 005°20'0 0.1
2015-Feb-05 18:33N 35°55' W 005°20'0 0.1
2015-Feb-05 17:33N 35°55' W 005°20'1 0.8
2015-Feb-05 16:33N 35°55' W 005°21'0 0.0
2015-Feb-05 15:24N 35°55' W 005°21'0 0.0
2015-Feb-05 14:30N 35°55' W 005°21'1 0.8
2015-Feb-05 13:33N 35°55' W 005°20'1 0.5
2015-Feb-05 12:28N 35°55' W 005°20'0 0.1
2015-Feb-05 11:31N 35°55' W 005°20'0 0.0
2015-Feb-05 10:28N 35°55' W 005°20'0 0.1
2015-Feb-05 09:31N 35°55' W 005°20'0 0.0
2015-Feb-05 08:33N 35°55' W 005°20'1 1.0
2015-Feb-05 07:32N 35°54' W 005°20'0 0.0
2015-Feb-05 06:32N 35°54' W 005°20'0 0.0
2015-Feb-05 05:32N 35°54' W 005°20'0 0.0
2015-Feb-05 04:32N 35°54' W 005°20'0 0.4
2015-Feb-05 03:34N 35°54' W 005°20'0 0.3
2015-Feb-05 02:33N 35°55' W 005°20'0 0.0
2015-Feb-05 01:33N 35°55' W 005°20'0 0.0
2015-Feb-05 00:33N 35°55' W 005°20'0 0.0
2015-Feb-04 23:33N 35°55' W 005°20'0 0.0
2015-Feb-04 22:33N 35°55' W 005°20'0 0.3
2015-Feb-04 21:33N 35°54' W 005°20'0 0.0
2015-Feb-04 20:33N 35°54' W 005°20'0 0.0
2015-Feb-04 19:33N 35°54' W 005°20'0 0.0
2015-Feb-04 18:33N 35°54' W 005°20'0 0.0
2015-Feb-04 17:33N 35°54' W 005°20'0 0.0
2015-Feb-04 16:33N 35°54' W 005°20'0 0.0
2015-Feb-04 15:33N 35°54' W 005°20'0 0.0
2015-Feb-04 14:33N 35°54' W 005°20'0 0.0
2015-Feb-04 13:33N 35°54' W 005°20'0 0.0
2015-Feb-04 12:33N 35°54' W 005°20'0 0.0
2015-Feb-04 11:33N 35°54' W 005°20'0 0.0
2015-Feb-04 10:33N 35°54' W 005°20'0 0.0
2015-Feb-04 09:33N 35°54' W 005°20'0 0.0
2015-Feb-04 08:33N 35°54' W 005°20'0 0.0
2015-Feb-04 07:33N 35°54' W 005°20'0 0.0
2015-Feb-04 06:33N 35°54' W 005°20'0 0.0
2015-Feb-04 05:33N 35°54' W 005°20'0 0.0
2015-Feb-04 04:33N 35°54' W 005°20'0 0.0
2015-Feb-04 03:33N 35°54' W 005°20'0 0.0
2015-Feb-04 02:33N 35°54' W 005°20'0 0.0
2015-Feb-04 01:33N 35°54' W 005°20'0 0.1
2015-Feb-04 00:33N 35°54' W 005°20'0 0.0
2015-Feb-03 23:33N 35°54' W 005°20'0 0.0
2015-Feb-03 22:30N 35°54' W 005°20'0 0.0
2015-Feb-03 21:33N 35°54' W 005°20'0 0.0
2015-Feb-03 20:33N 35°54' W 005°20'0 0.0
2015-Feb-03 19:33N 35°54' W 005°20'0 0.0
2015-Feb-03 18:30N 35°54' W 005°20'0 0.0
2015-Feb-03 17:33N 35°54' W 005°20'0 0.0
2015-Feb-03 16:33N 35°54' W 005°20'0 0.0
2015-Feb-03 15:33N 35°54' W 005°20'0 0.0
2015-Feb-03 14:33N 35°54' W 005°20'0 0.0
2015-Feb-03 13:30N 35°54' W 005°20'0 0.0
2015-Feb-03 12:33N 35°54' W 005°20'0 0.0
2015-Feb-03 11:33N 35°54' W 005°20'0 0.0
2015-Feb-03 10:33N 35°54' W 005°20'0 0.0
2015-Feb-03 09:33N 35°54' W 005°20'0 0.0
2015-Feb-03 08:33N 35°54' W 005°20'0 0.0
2015-Feb-03 07:33N 35°54' W 005°20'0 0.0
2015-Feb-03 06:33N 35°54' W 005°20'0 0.0
2015-Feb-03 05:33N 35°54' W 005°20'0 0.0
2015-Feb-03 04:33N 35°54' W 005°20'0 0.0
2015-Feb-03 03:33N 35°54' W 005°20'0 0.0
2015-Feb-03 02:33N 35°54' W 005°20'0 0.0
2015-Feb-03 01:33N 35°54' W 005°20'0 0.1
2015-Feb-03 00:33N 35°54' W 005°20'0 0.0
2015-Feb-02 23:33N 35°54' W 005°20'0 0.0
2015-Feb-02 22:33N 35°54' W 005°20'0 0.0
2015-Feb-02 21:33N 35°54' W 005°20'0 0.0
2015-Feb-02 20:33N 35°54' W 005°20'0 0.0
2015-Feb-02 19:33N 35°54' W 005°20'0 0.1
2015-Feb-02 18:30N 35°54' W 005°20'0 0.0
2015-Feb-02 17:30N 35°54' W 005°20'0 0.1
2015-Feb-02 16:33N 35°54' W 005°20'2 1.7
2015-Feb-02 15:32N 35°54' W 005°18'0 0.0
2015-Feb-02 14:32N 35°54' W 005°18'0 0.0
2015-Feb-02 13:32N 35°54' W 005°18'0 0.0
2015-Feb-02 12:32N 35°54' W 005°18'0 0.0
2015-Feb-02 11:32N 35°54' W 005°18'0 0.0
2015-Feb-02 10:32N 35°54' W 005°18'0 0.0
2015-Feb-02 09:29N 35°54' W 005°18'0 0.0
2015-Feb-02 08:32N 35°54' W 005°18'0 0.0
2015-Feb-02 07:32N 35°54' W 005°18'0 0.0
2015-Feb-02 06:32N 35°54' W 005°18'0 0.0
2015-Feb-02 05:32N 35°54' W 005°18'0 0.0
2015-Feb-02 04:32N 35°54' W 005°18'0 0.0
2015-Feb-02 03:32N 35°54' W 005°18'0 0.0
2015-Feb-02 02:32N 35°54' W 005°18'0 0.0
2015-Feb-02 01:32N 35°54' W 005°18'0 0.0
2015-Feb-02 00:32N 35°54' W 005°18'0 0.0
2015-Feb-01 23:32N 35°54' W 005°18'0 0.0
2015-Feb-01 22:32N 35°54' W 005°18'0 0.0
2015-Feb-01 21:32N 35°54' W 005°18'0 0.0
2015-Feb-01 20:32N 35°54' W 005°18'0 0.0
2015-Feb-01 19:32N 35°54' W 005°18'0 0.0
2015-Feb-01 18:32N 35°54' W 005°18'1 1.0
2015-Feb-01 17:31N 35°55' W 005°19'0 0.4
2015-Feb-01 16:31N 35°55' W 005°19'0 0.0
2015-Feb-01 15:31N 35°55' W 005°19'0 0.0
2015-Feb-01 14:31N 35°55' W 005°19'0 0.0
2015-Feb-01 13:31N 35°55' W 005°19'0 0.1
2015-Feb-01 12:31N 35°55' W 005°19'1 0.7
2015-Feb-01 11:33N 35°55' W 005°20'0 0.0
2015-Feb-01 10:33N 35°55' W 005°20'0 0.0
2015-Feb-01 09:33N 35°55' W 005°20'0 0.0
2015-Feb-01 08:33N 35°55' W 005°20'1 0.5
2015-Feb-01 07:32N 35°55' W 005°20'0 0.0
2015-Feb-01 06:32N 35°55' W 005°20'0 0.0
2015-Feb-01 05:29N 35°55' W 005°20'0 0.0
2015-Feb-01 04:29N 35°55' W 005°20'0 0.0
2015-Feb-01 03:32N 35°55' W 005°20'0 0.0
2015-Feb-01 02:32N 35°55' W 005°20'0 0.0
2015-Feb-01 01:32N 35°55' W 005°20'0 0.0
2015-Feb-01 00:32N 35°55' W 005°20'0 0.0
2015-Jan-31 23:32N 35°55' W 005°20'0 0.0
2015-Jan-31 22:32N 35°55' W 005°20'0 0.0
2015-Jan-31 21:32N 35°55' W 005°20'0 0.0
2015-Jan-31 20:32N 35°55' W 005°20'0 0.0
2015-Jan-31 19:32N 35°55' W 005°20'0 0.0
2015-Jan-31 18:32N 35°55' W 005°20'0 0.0
2015-Jan-31 17:32N 35°55' W 005°20'0 0.0
2015-Jan-31 16:32N 35°55' W 005°20'0 0.0
2015-Jan-31 15:32N 35°55' W 005°20'0 0.0
2015-Jan-31 14:32N 35°55' W 005°20'0 0.0
2015-Jan-31 13:32N 35°55' W 005°20'0 0.0
2015-Jan-31 12:32N 35°55' W 005°20'0 0.0
2015-Jan-31 11:32N 35°55' W 005°20'0 0.0
2015-Jan-31 10:32N 35°55' W 005°20'0 0.0
2015-Jan-31 09:32N 35°55' W 005°20'0 0.0
2015-Jan-31 08:32N 35°55' W 005°20'  

Dump ship's entire track history